Time;durP1;ratioP1;P1;durP2;ratioP2;P2;SDS_P1;SDS_P2;PMS_P1;PMS_P2;Temp;Humidity;BMP_temperature;BMP_pressure;BME280_temperature;BME280_humidity;BME280_pressure;Samples;Min_cycle;Max_cycle;Signal;HPM_P1;HPM_P2
2022/12/23 00:02:02;;;;;;;20.63;9.30;;;;;;;7.22;100.00;99930.47;4946687;28;20219;-75
2022/12/23 00:04:34;;;;;;;15.95;10.32;;;;;;;7.22;100.00;99925.94;4962775;29;20198;-74
2022/12/23 00:07:06;;;;;;;16.17;8.88;;;;;;;7.18;100.00;99923.84;4971920;29;20175;-74
2022/12/23 00:09:36;;;;;;;14.73;8.00;;;;;;;7.12;100.00;99920.09;4978719;28;20191;-76
2022/12/23 00:15:06;;;;;;;18.08;9.40;;;;;;;7.06;100.00;99915.56;4950704;28;20288;-74
2022/12/23 00:17:38;;;;;;;18.42;7.97;;;;;;;7.07;100.00;99917.19;4952311;28;20251;-75
2022/12/23 00:20:11;;;;;;;14.57;9.43;;;;;;;7.20;100.00;99902.97;4932354;29;20230;-75
2022/12/23 00:25:43;;;;;;;13.85;8.13;;;;;;;7.16;100.00;99912.47;4939523;28;20304;-74
2022/12/23 00:28:19;;;;;;;17.35;8.32;;;;;;;7.13;100.00;99916.41;4960977;29;20231;-76
2022/12/23 00:30:53;;;;;;;16.13;9.00;;;;;;;7.24;100.00;99905.03;4946408;29;20267;-75
2022/12/23 00:33:27;;;;;;;16.05;9.82;;;;;;;7.17;100.00;99896.13;4949474;28;20242;-75
2022/12/23 00:36:00;;;;;;;14.23;8.10;;;;;;;7.10;100.00;99900.66;4947477;29;20207;-74
2022/12/23 00:44:08;;;;;;;13.98;9.20;;;;;;;7.37;100.00;99883.53;4946954;29;20211;-74
2022/12/23 00:46:38;;;;;;;12.45;8.35;;;;;;;7.49;100.00;99878.38;4950227;29;20199;-74
2022/12/23 00:51:56;;;;;;;15.18;8.18;;;;;;;7.46;100.00;99889.53;4956789;29;20232;-75
2022/12/23 00:54:28;;;;;;;11.48;7.25;;;;;;;7.60;100.00;99879.59;4948549;29;20573;-75
2022/12/23 00:56:59;;;;;;;13.48;6.95;;;;;;;7.55;100.00;99882.09;4953488;29;20211;-75
2022/12/23 00:59:31;;;;;;;11.95;6.80;;;;;;;7.55;100.00;99872.13;4972313;29;20712;-75
2022/12/23 01:07:37;;;;;;;15.63;8.02;;;;;;;7.74;100.00;99870.50;4973712;28;20207;-74
2022/12/23 01:10:09;;;;;;;12.88;7.10;;;;;;;7.70;100.00;99875.44;4968123;29;20223;-74
2022/12/23 01:12:39;;;;;;;12.77;7.43;;;;;;;7.70;100.00;99858.44;4956904;29;20222;-75
2022/12/23 01:15:10;;;;;;;17.85;8.07;;;;;;;7.67;100.00;99853.50;4975695;28;20228;-75
2022/12/23 01:17:41;;;;;;;11.65;7.22;;;;;;;7.82;100.00;99852.25;4958081;29;20192;-75
2022/12/23 01:20:12;;;;;;;12.68;6.60;;;;;;;7.88;100.00;99852.44;4968138;28;20208;-75
2022/12/23 01:22:44;;;;;;;16.50;7.38;;;;;;;7.63;100.00;99852.25;4952419;29;20276;-76
2022/12/23 01:25:16;;;;;;;11.25;6.68;;;;;;;7.64;100.00;99862.00;4962593;28;20669;-76
2022/12/23 01:27:46;;;;;;;14.27;6.30;;;;;;;7.41;100.00;99865.91;4958307;29;20211;-74
2022/12/23 01:30:19;;;;;;;25.90;11.15;;;;;;;7.50;100.00;99858.50;4959789;28;20224;-75
2022/12/23 01:32:49;;;;;;;12.77;6.97;;;;;;;7.49;100.00;99866.75;4969528;28;20196;-75
2022/12/23 01:35:19;;;;;;;14.95;7.20;;;;;;;7.41;100.00;99860.53;4955196;29;20370;-76
2022/12/23 01:37:49;;;;;;;17.15;7.60;;;;;;;7.31;100.00;99865.50;4970612;28;20199;-75
2022/12/23 01:40:22;;;;;;;17.30;8.07;;;;;;;7.26;100.00;99861.78;4972660;28;20234;-75
2022/12/23 01:42:51;;;;;;;14.52;8.50;;;;;;;7.30;100.00;99857.66;4941021;29;20215;-75
2022/12/23 01:45:27;;;;;;;20.27;9.38;;;;;;;7.36;100.00;99852.25;4957710;29;20218;-75
2022/12/23 01:48:01;;;;;;;15.65;7.07;;;;;;;7.53;100.00;99849.16;4961444;29;20206;-76
2022/12/23 01:50:36;;;;;;;11.48;7.22;;;;;;;7.57;100.00;99843.16;4946293;28;20228;-75
2022/12/23 01:53:10;;;;;;;13.82;7.82;;;;;;;7.47;100.00;99841.91;4955146;29;20229;-77
2022/12/23 01:55:47;;;;;;;15.57;8.48;;;;;;;7.70;100.00;99843.13;4971883;29;20756;-74
2022/12/23 01:58:21;;;;;;;14.13;8.82;;;;;;;7.46;100.00;99845.63;4964558;29;20207;-76
2022/12/23 02:03:44;;;;;;;13.82;8.35;;;;;;;7.68;100.00;99830.91;4950973;29;20215;-76
2022/12/23 02:09:18;;;;;;;19.65;11.32;;;;;;;7.64;100.00;99827.00;4946989;29;20219;-75
2022/12/23 02:12:28;;;;;;;13.18;7.63;;;;;;;7.61;100.00;99824.69;4947916;29;20234;-75
2022/12/23 02:18:23;;;;;;;14.52;9.88;;;;;;;7.59;100.00;99826.78;4971801;29;20188;-76
2022/12/23 02:21:09;;;;;;;18.70;9.45;;;;;;;7.52;100.00;99832.16;4980047;28;20231;-75
2022/12/23 02:24:30;;;;;;;19.27;9.07;;;;;;;7.55;100.00;99825.56;4956963;29;20208;-75
2022/12/23 02:27:13;;;;;;;17.25;9.38;;;;;;;7.49;100.00;99819.13;4913454;29;20704;-74
2022/12/23 02:30:22;;;;;;;19.85;10.07;;;;;;;7.43;100.00;99810.03;4952989;29;20230;-76
2022/12/23 02:33:16;;;;;;;18.30;10.10;;;;;;;7.40;100.00;99813.16;4944321;29;20283;-76
2022/12/23 02:36:06;;;;;;;18.55;11.25;;;;;;;7.56;100.00;99809.19;4953188;29;20634;-76
2022/12/23 02:38:52;;;;;;;17.67;11.30;;;;;;;7.52;100.00;99801.72;4942327;29;20199;-74
2022/12/23 02:41:34;;;;;;;19.67;10.35;;;;;;;7.27;100.00;99794.28;4977547;29;20220;-75
2022/12/23 02:44:22;;;;;;;15.20;9.27;;;;;;;7.40;100.00;99791.63;4978064;29;20198;-74
2022/12/23 02:46:59;;;;;;;18.55;10.82;;;;;;;7.40;100.00;99783.53;4977882;29;20180;-74
2022/12/23 02:49:37;;;;;;;18.42;10.57;;;;;;;7.40;100.00;99788.09;4960866;29;20204;-75
2022/12/23 02:52:16;;;;;;;16.73;11.05;;;;;;;7.51;100.00;99783.91;4956019;29;20250;-74
2022/12/23 02:54:53;;;;;;;20.40;11.18;;;;;;;7.47;100.00;99780.00;4953451;29;20226;-74
2022/12/23 02:57:30;;;;;;;20.48;11.43;;;;;;;7.51;100.00;99776.66;4948151;29;20251;-74
2022/12/23 03:00:06;;;;;;;16.08;9.05;;;;;;;7.40;100.00;99772.78;4946732;29;20191;-74
2022/12/23 03:02:48;;;;;;;14.15;9.48;;;;;;;7.47;100.00;99777.31;4947634;29;20263;-74
2022/12/23 03:05:34;;;;;;;21.70;11.77;;;;;;;7.61;100.00;99768.16;4947091;29;20193;-74
2022/12/23 03:08:13;;;;;;;24.25;10.07;;;;;;;7.49;100.00;99759.91;4972496;28;20207;-74
2022/12/23 03:11:06;;;;;;;16.50;10.73;;;;;;;7.26;100.00;99760.34;4965111;28;20722;-75
2022/12/23 03:14:02;;;;;;;21.98;11.00;;;;;;;7.31;100.00;99757.84;4934110;29;20270;-74
2022/12/23 03:16:48;;;;;;;21.13;11.00;;;;;;;7.43;100.00;99758.88;4922319;29;20613;-73
2022/12/23 03:19:30;;;;;;;22.95;10.60;;;;;;;7.45;100.00;99758.69;4958140;28;20192;-74
2022/12/23 03:22:14;;;;;;;25.85;11.90;;;;;;;7.53;100.00;99758.47;4961296;28;20255;-74
2022/12/23 03:24:56;;;;;;;19.58;10.25;;;;;;;7.42;100.00;99761.78;4954199;29;20219;-75
2022/12/23 03:27:34;;;;;;;23.65;11.50;;;;;;;7.65;100.00;99758.66;4944571;28;20188;-74
2022/12/23 03:30:11;;;;;;;22.25;11.27;;;;;;;7.59;100.00;99760.31;4945052;29;20235;-75
2022/12/23 03:32:52;;;;;;;17.92;9.23;;;;;;;7.46;100.00;99754.94;4980044;23;20697;-72
2022/12/23 03:35:27;;;;;;;21.75;11.02;;;;;;;7.40;100.00;99767.41;4943206;29;20308;-72
2022/12/23 03:38:00;;;;;;;17.70;10.38;;;;;;;7.47;100.00;99763.84;4942940;29;20298;-72
2022/12/23 03:40:35;;;;;;;18.77;11.05;;;;;;;7.56;100.00;99760.72;4918496;29;20666;-71
2022/12/23 03:43:09;;;;;;;22.92;11.82;;;;;;;7.44;100.00;99751.66;4950364;28;20456;-72
2022/12/23 03:45:43;;;;;;;19.27;10.32;;;;;;;7.67;100.00;99746.63;4943226;29;20242;-72
2022/12/23 03:48:20;;;;;;;21.23;11.45;;;;;;;7.58;100.00;99744.38;4939303;29;20279;-72
2022/12/23 03:50:52;;;;;;;23.80;13.00;;;;;;;7.53;100.00;99745.00;4919584;29;20296;-71
2022/12/23 03:53:27;;;;;;;19.42;11.45;;;;;;;7.55;100.00;99748.28;4937689;29;20197;-73
2022/12/23 03:56:02;;;;;;;17.48;9.50;;;;;;;7.60;100.00;99745.00;4929640;29;20220;-72
2022/12/23 03:58:39;;;;;;;17.92;11.15;;;;;;;7.50;100.00;99745.44;4943366;29;20653;-73
2022/12/23 04:01:18;;;;;;;18.30;12.40;;;;;;;7.53;100.00;99744.16;4936428;29;20247;-72
2022/12/23 04:03:54;;;;;;;14.70;9.20;;;;;;;7.66;100.00;99741.44;4936539;29;20223;-72
2022/12/23 04:06:27;;;;;;;22.98;11.02;;;;;;;7.62;100.00;99742.91;4936299;29;20527;-73
2022/12/23 04:08:58;;;;;;;18.65;11.43;;;;;;;7.77;100.00;99740.78;4936254;29;20248;-70
2022/12/23 04:11:28;;;;;;;17.20;11.18;;;;;;;7.68;100.00;99736.69;4936119;29;20283;-72
2022/12/23 04:13:57;;;;;;;19.55;9.82;;;;;;;7.65;100.00;99731.72;4938892;28;20195;-72
2022/12/23 04:16:28;;;;;;;21.80;12.07;;;;;;;7.54;100.00;99735.06;4943762;29;20565;-72
2022/12/23 04:18:57;;;;;;;18.67;11.57;;;;;;;7.55;100.00;99726.75;4940816;29;20227;-72
2022/12/23 04:21:26;;;;;;;25.88;13.25;;;;;;;7.50;100.00;99725.75;4942341;29;20227;-73
2022/12/23 04:23:57;;;;;;;19.02;9.73;;;;;;;7.59;100.00;99735.25;4938173;29;20205;-73
2022/12/23 04:26:26;;;;;;;20.65;10.77;;;;;;;7.54;100.00;99729.69;4937654;29;20654;-73
2022/12/23 04:28:55;;;;;;;16.00;10.07;;;;;;;7.64;100.00;99730.06;4945485;29;20224;-72
2022/12/23 04:31:24;;;;;;;20.80;11.00;;;;;;;7.58;100.00;99731.75;4948368;28;20697;-72
2022/12/23 04:33:53;;;;;;;21.73;12.68;;;;;;;7.40;100.00;99724.34;4941932;29;20199;-73
2022/12/23 04:36:22;;;;;;;23.33;13.77;;;;;;;7.38;100.00;99731.78;4943007;28;20323;-72
2022/12/23 04:38:51;;;;;;;16.90;10.43;;;;;;;7.32;100.00;99721.00;4950460;29;20630;-73
2022/12/23 04:41:23;;;;;;;19.58;10.50;;;;;;;7.19;100.00;99727.25;4942277;28;20590;-72
2022/12/23 04:43:52;;;;;;;18.75;10.52;;;;;;;7.26;100.00;99728.06;4930381;29;20657;-72
2022/12/23 04:46:21;;;;;;;20.02;11.32;;;;;;;7.24;100.00;99722.06;4941055;29;20562;-73
2022/12/23 04:48:50;;;;;;;20.48;11.57;;;;;;;7.16;100.00;99716.91;4940974;29;20208;-74
2022/12/23 04:51:19;;;;;;;16.83;9.60;;;;;;;7.13;100.00;99722.69;4946297;28;20248;-73
2022/12/23 04:53:48;;;;;;;21.48;11.73;;;;;;;7.23;100.00;99712.34;4945806;28;20244;-72
2022/12/23 04:56:17;;;;;;;19.83;10.20;;;;;;;7.15;100.00;99712.56;4950553;29;20230;-70
2022/12/23 04:58:48;;;;;;;24.83;12.82;;;;;;;7.18;100.00;99720.22;4948472;29;20208;-73
2022/12/23 05:01:17;;;;;;;16.58;11.93;;;;;;;7.22;100.00;99726.00;4945311;29;20272;-74
2022/12/23 05:03:46;;;;;;;23.50;11.73;;;;;;;7.30;100.00;99718.56;4954339;29;20188;-75
2022/12/23 05:06:15;;;;;;;19.00;10.70;;;;;;;7.17;100.00;99723.94;4944193;29;20196;-74
2022/12/23 05:08:44;;;;;;;26.02;12.05;;;;;;;7.15;100.00;99714.44;4950047;28;20176;-74
2022/12/23 05:11:13;;;;;;;24.60;11.50;;;;;;;7.24;100.00;99722.06;4945658;29;20241;-75
2022/12/23 05:13:42;;;;;;;19.45;10.48;;;;;;;7.26;100.00;99728.06;4945594;29;20200;-74
2022/12/23 05:16:13;;;;;;;22.30;12.27;;;;;;;7.27;100.00;99724.34;4947439;29;20215;-73
2022/12/23 05:18:42;;;;;;;24.08;12.50;;;;;;;7.27;100.00;99718.94;4959975;29;20193;-73
2022/12/23 05:21:11;;;;;;;18.98;10.95;;;;;;;7.18;100.00;99728.28;4958836;28;20275;-74
2022/12/23 05:23:40;;;;;;;28.98;12.05;;;;;;;7.30;100.00;99723.94;4961435;29;20216;-74
2022/12/23 05:26:10;;;;;;;21.70;13.05;;;;;;;7.26;100.00;99722.66;4956163;29;20212;-74
2022/12/23 05:28:39;;;;;;;23.67;11.82;;;;;;;7.20;100.00;99720.00;4954357;29;20189;-73
2022/12/23 05:31:09;;;;;;;28.17;14.88;;;;;;;7.15;100.00;99720.63;4954163;29;20231;-74
2022/12/23 05:33:40;;;;;;;26.10;14.60;;;;;;;7.23;100.00;99717.72;4954553;29;20576;-73
2022/12/23 05:36:09;;;;;;;28.05;13.65;;;;;;;7.17;100.00;99707.78;4952393;29;20209;-73
2022/12/23 05:38:38;;;;;;;24.83;12.82;;;;;;;7.19;100.00;99716.47;4955262;29;20231;-73
2022/12/23 05:41:08;;;;;;;20.25;11.70;;;;;;;7.16;100.00;99716.91;4949394;29;20269;-72
2022/12/23 05:43:37;;;;;;;25.40;11.10;;;;;;;7.32;100.00;99719.16;4947475;29;20216;-74
2022/12/23 05:46:06;;;;;;;21.67;13.23;;;;;;;7.31;100.00;99720.19;4957701;29;20197;-72
2022/12/23 05:48:35;;;;;;;40.20;22.10;;;;;;;7.23;100.00;99720.41;4933978;29;20197;-74
2022/12/23 05:51:06;;;;;;;43.25;21.38;;;;;;;7.19;100.00;99721.88;4954707;28;20286;-74
2022/12/23 05:53:35;;;;;;;40.25;21.38;;;;;;;7.19;100.00;99727.25;4954229;29;20207;-73
2022/12/23 05:56:05;;;;;;;36.10;21.88;;;;;;;7.15;100.00;99720.63;4959704;29;20763;-74
2022/12/23 05:58:34;;;;;;;25.35;14.05;;;;;;;7.10;100.00;99717.75;4954759;29;20204;-73
2022/12/23 06:01:04;;;;;;;27.70;13.15;;;;;;;7.14;100.00;99721.66;4942798;29;20199;-74
2022/12/23 06:03:33;;;;;;;20.13;12.75;;;;;;;7.19;100.00;99721.88;4949567;29;20283;-73
2022/12/23 06:06:03;;;;;;;21.10;11.82;;;;;;;7.13;100.00;99730.75;4928291;29;20204;-72
2022/12/23 06:08:33;;;;;;;26.60;13.00;;;;;;;7.08;100.00;99735.09;4943153;29;20275;-72
2022/12/23 06:11:05;;;;;;;17.95;10.68;;;;;;;7.13;100.00;99728.06;4943526;28;20657;-73
2022/12/23 06:13:34;;;;;;;18.10;11.73;;;;;;;7.09;100.00;99736.78;4938360;29;20193;-73
2022/12/23 06:16:04;;;;;;;24.15;12.77;;;;;;;7.19;100.00;99739.88;4943857;29;20197;-74
2022/12/23 06:18:33;;;;;;;15.68;9.77;;;;;;;7.14;100.00;99727.03;4941053;29;20291;-73
2022/12/23 06:21:02;;;;;;;24.92;11.90;;;;;;;7.27;100.00;99748.53;4927783;29;20200;-73
2022/12/23 06:23:33;;;;;;;23.85;12.13;;;;;;;7.60;100.00;99743.09;4939355;29;20292;-72
2022/12/23 06:26:03;;;;;;;19.08;11.45;;;;;;;7.63;100.00;99745.41;4933928;29;20280;-72
2022/12/23 06:28:32;;;;;;;23.20;12.05;;;;;;;7.52;100.00;99753.28;4940427;29;20631;-73
2022/12/23 06:31:01;;;;;;;19.67;13.80;;;;;;;7.53;100.00;99752.25;4947912;29;20757;-73
2022/12/23 06:33:30;;;;;;;20.80;11.55;;;;;;;7.47;100.00;99761.16;4940521;29;20196;-73
2022/12/23 06:35:59;;;;;;;26.55;11.27;;;;;;;7.47;100.00;99763.84;4943948;29;20197;-73
2022/12/23 06:38:28;;;;;;;18.00;11.80;;;;;;;7.46;100.00;99759.50;4944247;29;20216;-74
2022/12/23 06:40:59;;;;;;;21.25;12.27;;;;;;;7.43;100.00;99769.66;4947271;28;20227;-73
2022/12/23 06:43:28;;;;;;;21.27;11.40;;;;;;;7.60;100.00;99766.53;4945098;29;20204;-72
2022/12/23 06:45:57;;;;;;;18.77;11.38;;;;;;;7.56;100.00;99767.97;4932485;29;20215;-73
2022/12/23 06:48:26;;;;;;;22.13;12.88;;;;;;;7.53;100.00;99787.25;4945238;29;20248;-73
2022/12/23 06:50:55;;;;;;;22.00;12.45;;;;;;;7.45;100.00;99785.59;4942192;29;20280;-71
2022/12/23 06:53:24;;;;;;;17.35;10.10;;;;;;;7.55;100.00;99791.38;4939013;29;20197;-74
2022/12/23 06:56:01;;;;;;;17.83;11.02;;;;;;;7.75;100.00;99792.16;4949322;28;20204;-74
2022/12/23 06:58:30;;;;;;;18.58;11.10;;;;;;;7.88;100.00;99794.00;4954322;29;20204;-73
2022/12/23 07:00:59;;;;;;;22.58;10.95;;;;;;;7.75;100.00;99791.34;4946057;29;20200;-73
2022/12/23 07:03:29;;;;;;;23.88;10.95;;;;;;;7.66;100.00;99792.59;4921998;29;20220;-72
2022/12/23 07:05:58;;;;;;;21.50;11.65;;;;;;;7.81;100.00;99798.56;4941040;29;20215;-72
2022/12/23 07:08:27;;;;;;;20.00;11.35;;;;;;;7.74;100.00;99795.91;4947669;29;20561;-71
2022/12/23 07:11:00;;;;;;;26.38;13.35;;;;;;;7.74;100.00;99804.00;4929955;29;20197;-73
2022/12/23 07:13:29;;;;;;;16.83;9.95;;;;;;;7.80;100.00;99807.69;4946687;29;20259;-71
2022/12/23 07:15:58;;;;;;;20.20;11.52;;;;;;;7.87;100.00;99808.50;4948326;29;20203;-73
2022/12/23 07:18:29;;;;;;;22.52;11.75;;;;;;;7.71;100.00;99806.25;4941124;29;20212;-73
2022/12/23 07:21:01;;;;;;;19.58;10.13;;;;;;;7.61;100.00;99811.25;4938297;28;20204;-72
2022/12/23 07:23:30;;;;;;;17.30;9.93;;;;;;;7.83;100.00;99809.97;4936089;29;20562;-73
2022/12/23 07:26:01;;;;;;;21.20;11.02;;;;;;;7.89;100.00;99813.69;4930489;29;20660;-72
2022/12/23 07:28:30;;;;;;;21.85;11.85;;;;;;;7.80;100.00;99815.78;4931681;29;20268;-74
2022/12/23 07:30:59;;;;;;;17.45;10.32;;;;;;;7.63;100.00;99819.94;4940264;29;20497;-74
2022/12/23 07:33:29;;;;;;;22.98;12.15;;;;;;;7.73;100.00;99821.19;4947954;29;20691;-73
2022/12/23 07:35:59;;;;;;;19.50;10.48;;;;;;;7.61;100.00;99816.63;4944509;29;20207;-73
2022/12/23 07:38:28;;;;;;;16.73;9.63;;;;;;;7.75;100.00;99821.78;4942280;29;20220;-73
2022/12/23 07:40:57;;;;;;;18.52;10.27;;;;;;;7.58;100.00;99817.06;4930197;28;20669;-73
2022/12/23 07:43:27;;;;;;;22.10;10.40;;;;;;;7.56;100.00;99828.03;4938933;29;20562;-73
2022/12/23 07:45:56;;;;;;;21.20;10.02;;;;;;;7.56;100.00;99830.72;4942166;29;20205;-74
2022/12/23 07:48:29;;;;;;;28.27;13.38;;;;;;;7.63;100.00;99825.34;4941641;29;20199;-73
2022/12/23 07:51:01;;;;;;;20.23;9.55;;;;;;;7.57;100.00;99826.16;4936484;29;20197;-72
2022/12/23 07:53:30;;;;;;;22.23;9.55;;;;;;;7.61;100.00;99832.78;4936799;29;20189;-71
2022/12/23 07:55:59;;;;;;;22.48;10.75;;;;;;;7.60;100.00;99831.16;4944077;29;20193;-73
2022/12/23 07:58:30;;;;;;;24.92;12.23;;;;;;;7.62;100.00;99839.81;4937696;29;20248;-73
2022/12/23 08:01:03;;;;;;;27.15;10.30;;;;;;;7.48;100.00;99827.41;4937748;28;20283;-74
2022/12/23 08:03:33;;;;;;;20.88;8.43;;;;;;;7.39;100.00;99829.50;4938007;29;20217;-73
2022/12/23 08:06:03;;;;;;;24.58;11.15;;;;;;;7.61;100.00;99843.56;4935775;29;20197;-71
2022/12/23 08:08:33;;;;;;;25.45;9.35;;;;;;;7.60;100.00;99852.69;4937373;29;20684;-71
2022/12/23 08:11:04;;;;;;;26.55;11.48;;;;;;;7.54;100.00;99853.50;4938277;28;20550;-73
2022/12/23 08:13:37;;;;;;;22.38;12.05;;;;;;;7.47;100.00;99858.06;4936573;29;20678;-73
2022/12/23 08:16:07;;;;;;;23.75;10.70;;;;;;;7.61;100.00;99865.09;4934339;29;20192;-73
2022/12/23 08:18:37;;;;;;;30.58;11.02;;;;;;;7.60;100.00;99864.25;4934069;29;20673;-73
2022/12/23 08:21:10;;;;;;;21.45;11.30;;;;;;;7.57;100.00;99863.84;4945663;29;20200;-73
2022/12/23 08:23:39;;;;;;;23.23;11.30;;;;;;;7.58;100.00;99862.81;4950048;29;20283;-74
2022/12/23 08:26:10;;;;;;;27.95;12.55;;;;;;;7.63;100.00;99857.66;4956507;29;20255;-72
2022/12/23 08:28:42;;;;;;;27.63;11.40;;;;;;;7.76;100.00;99860.31;4950450;29;20596;-73
2022/12/23 08:31:13;;;;;;;30.42;10.75;;;;;;;7.75;100.00;99866.72;4951950;29;20228;-74
2022/12/23 08:33:44;;;;;;;19.95;10.50;;;;;;;7.79;100.00;99874.19;4956623;29;20198;-72
2022/12/23 08:36:15;;;;;;;32.85;13.90;;;;;;;7.82;100.00;99872.94;4949428;29;20212;-73
2022/12/23 08:38:52;;;;;;;20.83;10.23;;;;;;;7.74;100.00;99875.88;4954820;29;20223;-73
2022/12/23 08:41:23;;;;;;;19.48;9.65;;;;;;;7.67;100.00;99865.09;4948301;29;20220;-74
2022/12/23 08:43:53;;;;;;;27.00;11.02;;;;;;;7.59;100.00;99869.88;4946600;29;20203;-72
2022/12/23 08:46:23;;;;;;;28.75;10.63;;;;;;;7.64;100.00;99864.69;4937770;29;20220;-73
2022/12/23 08:48:52;;;;;;;25.73;11.70;;;;;;;7.68;100.00;99882.09;4937006;29;20229;-75
2022/12/23 08:51:23;;;;;;;21.17;10.23;;;;;;;7.60;100.00;99877.72;4920662;29;20584;-72
2022/12/23 08:53:55;;;;;;;22.77;10.55;;;;;;;7.68;100.00;99882.91;4923548;29;20677;-73
2022/12/23 08:56:31;;;;;;;26.02;11.60;;;;;;;7.55;100.00;99877.50;4936960;29;20685;-71
2022/12/23 08:59:03;;;;;;;28.95;8.85;;;;;;;7.53;100.00;99884.16;4945723;29;20210;-72
2022/12/23 09:01:34;;;;;;;19.00;8.65;;;;;;;7.56;100.00;99878.34;4935567;29;20747;-70
2022/12/23 09:04:04;;;;;;;20.42;8.98;;;;;;;7.73;100.00;99879.59;4941452;29;20204;-73
2022/12/23 09:06:36;;;;;;;21.33;9.40;;;;;;;7.76;100.00;99889.94;4919208;29;20288;-73
2022/12/23 09:09:06;;;;;;;18.35;7.70;;;;;;;7.77;100.00;99897.00;4926230;29;20665;-71
2022/12/23 09:11:36;;;;;;;26.27;10.48;;;;;;;7.82;100.00;99921.44;4940577;28;20254;-71
2022/12/23 09:14:08;;;;;;;21.73;9.63;;;;;;;7.82;100.00;99916.06;4940673;29;20685;-73
2022/12/23 09:16:38;;;;;;;22.27;8.65;;;;;;;7.84;100.00;99922.06;4936728;29;20346;-73
2022/12/23 09:19:07;;;;;;;20.45;8.55;;;;;;;7.88;100.00;99925.16;4941843;29;20210;-73
2022/12/23 09:21:37;;;;;;;17.67;9.18;;;;;;;7.85;100.00;99921.84;4945479;28;20244;-71
2022/12/23 09:24:06;;;;;;;25.92;9.48;;;;;;;7.78;100.00;99920.19;4943426;29;20188;-73
2022/12/23 09:26:35;;;;;;;13.70;6.88;;;;;;;7.82;100.00;99924.13;4953188;29;20220;-72
2022/12/23 09:29:06;;;;;;;17.85;8.50;;;;;;;7.80;100.00;99924.31;4956419;29;20315;-73
2022/12/23 09:31:35;;;;;;;14.02;7.95;;;;;;;7.77;100.00;99940.09;4963255;23;20223;-76
2022/12/23 09:34:06;;;;;;;20.88;8.73;;;;;;;7.75;100.00;99947.53;4948890;29;20191;-81
2022/12/23 09:36:35;;;;;;;22.85;7.90;;;;;;;7.79;100.00;99960.38;4951576;29;20599;-79
2022/12/23 09:39:04;;;;;;;17.75;9.05;;;;;;;7.86;100.00;99971.16;4950198;29;20217;-78
2022/12/23 09:41:54;;;;;;;15.52;8.27;;;;;;;7.88;100.00;99970.97;4952186;29;20196;-79
2022/12/23 09:44:43;;;;;;;22.58;7.75;;;;;;;7.85;100.00;99974.88;4950227;29;20204;-79
2022/12/23 09:47:20;;;;;;;18.35;7.20;;;;;;;7.91;100.00;99973.22;4935461;29;20209;-78
2022/12/23 09:49:52;;;;;;;20.67;6.93;;;;;;;7.65;100.00;99974.88;4962256;29;20206;-77
2022/12/23 09:52:31;;;;;;;14.35;6.50;;;;;;;7.35;100.00;99985.19;4966738;29;20200;-79
2022/12/23 09:55:00;;;;;;;18.45;7.60;;;;;;;7.51;100.00;99993.88;4954370;29;20189;-78
2022/12/23 09:57:37;;;;;;;17.27;7.47;;;;;;;7.60;100.00;99988.09;4956484;28;20264;-76
2022/12/23 10:00:13;;;;;;;20.30;9.02;;;;;;;7.64;100.00;99983.16;4943655;29;20248;-78
2022/12/23 10:02:54;;;;;;;20.17;8.60;;;;;;;7.75;100.00;99985.22;4939164;29;20253;-77
2022/12/23 10:05:35;;;;;;;17.15;8.38;;;;;;;7.79;100.00;99986.50;4970265;28;20273;-77
2022/12/23 10:08:12;;;;;;;26.83;9.27;;;;;;;7.88;100.00;99989.81;4943394;29;20232;-78
2022/12/23 10:10:48;;;;;;;18.23;8.13;;;;;;;7.84;100.00;99995.59;4959926;29;20217;-79
2022/12/23 10:13:28;;;;;;;19.35;8.15;;;;;;;7.96;100.00;99993.13;4937878;29;20193;-77
2022/12/23 10:16:04;;;;;;;13.60;7.03;;;;;;;7.88;100.00;99990.66;4970257;29;20260;-78
2022/12/23 10:18:49;;;;;;;13.57;8.27;;;;;;;8.18;100.00;99997.25;4962256;29;20209;-77
2022/12/23 10:21:26;;;;;;;18.95;7.35;;;;;;;8.24;100.00;99996.44;4932812;29;20220;-78
2022/12/23 10:23:56;;;;;;;18.73;6.85;;;;;;;8.23;100.00;99992.06;4949901;29;20621;-78
2022/12/23 10:26:31;;;;;;;23.50;9.40;;;;;;;8.26;100.00;99991.66;5007944;23;20220;-73
2022/12/23 10:29:17;;;;;;;13.40;7.57;;;;;;;8.17;100.00;99995.63;4976206;28;20194;-77
2022/12/23 10:32:01;;;;;;;19.90;7.82;;;;;;;8.14;100.00;99998.72;4974046;28;20688;-75
2022/12/23 10:34:47;;;;;;;13.52;6.50;;;;;;;8.04;100.00;99989.38;4954105;28;20219;-76
2022/12/23 10:37:24;;;;;;;15.20;7.50;;;;;;;8.10;100.00;99980.47;4957177;28;20719;-77
2022/12/23 10:40:04;;;;;;;12.00;7.15;;;;;;;8.24;100.00;99985.66;4963553;28;20204;-74
2022/12/23 10:42:39;;;;;;;15.60;8.00;;;;;;;8.32;100.00;99987.34;4965537;23;20780;-71
2022/12/23 10:45:28;;;;;;;11.45;6.35;;;;;;;8.24;100.00;99982.13;4938613;29;20226;-70
2022/12/23 10:48:14;;;;;;;12.20;7.30;;;;;;;8.47;100.00;99979.03;4938739;29;20264;-76
2022/12/23 10:50:55;;;;;;;19.42;8.95;;;;;;;8.57;100.00;99974.00;4937871;29;20207;-69
2022/12/23 10:53:35;;;;;;;17.55;9.02;;;;;;;8.69;100.00;99967.75;4937791;29;20717;-69
2022/12/23 10:56:07;;;;;;;17.67;8.10;;;;;;;8.76;100.00;99973.13;4937682;29;20197;-71
2022/12/23 10:58:40;;;;;;;13.23;6.85;;;;;;;8.70;100.00;99979.38;4945148;29;20661;-70
2022/12/23 11:01:12;;;;;;;14.63;7.72;;;;;;;8.56;100.00;99981.28;4937576;29;20323;-69
2022/12/23 11:04:02;;;;;;;13.50;7.50;;;;;;;8.52;100.00;99990.81;4938455;29;20248;-71
2022/12/23 11:06:33;;;;;;;9.73;5.78;;;;;;;8.52;100.00;99992.72;4941092;29;20188;-71
2022/12/23 11:09:07;;;;;;;11.95;7.60;;;;;;;8.67;100.00;99988.72;4939796;29;20726;-71
2022/12/23 11:11:55;;;;;;;8.10;6.53;;;;;;;8.56;100.00;99993.94;4945160;29;20224;-73
2022/12/23 11:14:33;;;;;;;7.50;5.30;;;;;;;8.59;100.00;99994.34;4937584;29;20283;-70
2022/12/23 11:17:03;;;;;;;9.23;6.53;;;;;;;8.42;100.00;99997.69;4938063;29;20196;-71
2022/12/23 11:19:34;;;;;;;18.25;9.63;;;;;;;8.41;100.00;99993.34;4937271;29;20295;-70
2022/12/23 11:22:04;;;;;;;14.35;7.18;;;;;;;8.47;100.00;99989.81;4939819;29;20274;-73
2022/12/23 11:24:33;;;;;;;15.20;8.38;;;;;;;8.62;100.00;99990.38;4942358;29;20204;-69
2022/12/23 11:27:16;;;;;;;12.32;8.07;;;;;;;8.64;100.00;99999.09;4934330;29;20234;-72
2022/12/23 11:29:49;;;;;;;16.23;7.75;;;;;;;8.61;100.00;99991.44;4943631;29;20211;-72
2022/12/23 11:32:22;;;;;;;12.10;7.90;;;;;;;8.46;100.00;99982.75;4941522;28;20238;-73
2022/12/23 11:34:54;;;;;;;13.20;7.57;;;;;;;8.48;100.00;99994.97;4940024;29;20193;-72
2022/12/23 11:37:36;;;;;;;14.73;7.65;;;;;;;8.43;100.00;99993.94;4940912;29;20645;-73
2022/12/23 11:40:07;;;;;;;16.75;7.53;;;;;;;8.38;100.00;100001.81;4939741;29;20292;-72
2022/12/23 11:42:36;;;;;;;17.75;9.05;;;;;;;8.28;100.00;100007.63;4943830;28;20223;-72
2022/12/23 11:45:08;;;;;;;10.25;6.40;;;;;;;8.32;100.00;100000.81;4945547;29;20217;-74
2022/12/23 11:47:40;;;;;;;12.18;7.95;;;;;;;8.41;100.00;100001.44;4939964;29;20624;-73
2022/12/23 11:50:28;;;;;;;11.90;8.02;;;;;;;8.40;100.00;100010.53;4939768;29;20602;-73
2022/12/23 11:53:05;;;;;;;11.52;6.85;;;;;;;8.38;100.00;100016.13;4930925;29;20256;-73
2022/12/23 11:55:34;;;;;;;17.08;8.63;;;;;;;8.33;100.00;100015.13;4936422;29;20691;-71
2022/12/23 11:58:03;;;;;;;15.48;8.82;;;;;;;8.40;100.00;100018.63;4937045;29;20280;-70
2022/12/23 12:00:40;;;;;;;17.45;8.05;;;;;;;8.39;100.00;100014.28;4936600;29;20205;-72
2022/12/23 12:03:17;;;;;;;16.52;8.32;;;;;;;8.31;100.00;100022.59;4938997;29;20234;-72
2022/12/23 12:05:53;;;;;;;16.48;9.57;;;;;;;8.33;100.00;100036.69;4937255;29;20196;-73
2022/12/23 12:08:33;;;;;;;17.25;9.80;;;;;;;8.34;100.00;100032.94;4944953;29;20215;-71
2022/12/23 12:11:07;;;;;;;16.83;9.23;;;;;;;8.26;100.00;100042.88;4935136;29;20267;-71
2022/12/23 12:13:40;;;;;;;16.52;8.93;;;;;;;8.33;100.00;100042.09;4948701;29;20219;-71
2022/12/23 12:16:28;;;;;;;18.75;9.15;;;;;;;8.53;100.00;100042.88;4939543;29;20224;-72
2022/12/23 12:19:03;;;;;;;16.35;8.48;;;;;;;8.46;100.00;100044.75;4936230;29;20228;-72
2022/12/23 12:21:38;;;;;;;16.17;9.65;;;;;;;8.56;100.00;100042.47;4935298;29;20306;-72